createdAt,value
2023-04-23T00:01:57.315Z,76.81
2023-04-23T00:04:26.022Z,76.34
2023-04-23T00:06:53.025Z,76.89
2023-04-23T00:09:22.605Z,76.55
2023-04-23T00:11:49.329Z,77.40
2023-04-23T00:14:16.037Z,78.16
2023-04-23T00:16:42.940Z,78.34
2023-04-23T00:19:10.673Z,77.45
2023-04-23T00:21:37.213Z,78.03
2023-04-23T00:24:03.782Z,79.00
2023-04-23T00:26:30.259Z,78.99
2023-04-23T00:28:56.771Z,78.84
2023-04-23T00:31:23.506Z,78.53
2023-04-23T00:33:50.248Z,78.21
2023-04-23T00:36:16.799Z,78.06
2023-04-23T00:38:43.309Z,77.06
2023-04-23T00:41:10.155Z,77.66
2023-04-23T00:43:37.142Z,77.84
2023-04-23T00:46:03.976Z,77.70
2023-04-23T00:48:30.696Z,77.29
2023-04-23T00:51:03.346Z,77.29
2023-04-23T00:53:29.934Z,78.02
2023-04-23T00:55:57.280Z,77.98
2023-04-23T00:58:23.894Z,78.06
2023-04-23T01:00:50.559Z,78.55
2023-04-23T01:03:17.299Z,78.08
2023-04-23T01:05:44.111Z,77.75
2023-04-23T01:08:15.572Z,77.37
2023-04-23T01:10:45.801Z,77.35
2023-04-23T01:13:13.376Z,77.24
2023-04-23T01:15:40.000Z,77.58
2023-04-23T01:18:06.654Z,78.75
2023-04-23T01:20:36.010Z,77.89
2023-04-23T01:23:05.828Z,78.31
2023-04-23T01:25:32.499Z,78.64
2023-04-23T01:27:59.382Z,78.33
2023-04-23T01:30:27.284Z,79.37
2023-04-23T01:32:57.678Z,79.78
2023-04-23T01:35:25.232Z,80.19
2023-04-23T01:37:53.630Z,80.55
2023-04-23T01:40:21.332Z,81.59
2023-04-23T01:42:48.320Z,82.87
2023-04-23T01:45:14.850Z,83.02
2023-04-23T01:47:42.005Z,82.56
2023-04-23T01:50:09.652Z,82.30
2023-04-23T01:52:36.311Z,82.48
2023-04-23T01:55:03.240Z,82.22
2023-04-23T01:57:29.835Z,81.36
2023-04-23T02:00:05.222Z,80.35
2023-04-23T02:02:31.786Z,81.56
2023-04-23T02:05:00.721Z,80.62
2023-04-23T02:07:27.309Z,80.53
2023-04-23T02:09:53.829Z,80.06
2023-04-23T02:12:20.309Z,80.39
2023-04-23T02:14:46.846Z,79.79
2023-04-23T02:17:13.320Z,80.27
2023-04-23T02:19:39.790Z,79.90
2023-04-23T02:22:06.321Z,80.09
2023-04-23T02:24:33.114Z,80.65
2023-04-23T02:26:59.628Z,80.14
2023-04-23T02:29:26.132Z,80.14
2023-04-23T02:31:52.841Z,81.11
2023-04-23T02:34:19.458Z,80.40
2023-04-23T02:36:45.996Z,81.07
2023-04-23T02:39:12.460Z,81.18
2023-04-23T02:41:38.902Z,81.13
2023-04-23T02:44:05.418Z,80.51
2023-04-23T02:46:32.028Z,81.09
2023-04-23T02:48:58.629Z,83.44
2023-04-23T02:51:25.274Z,82.92
2023-04-23T02:53:51.799Z,82.98
2023-04-23T02:56:18.272Z,82.57
2023-04-23T02:58:44.792Z,81.76
2023-04-23T03:01:11.398Z,81.75
2023-04-23T03:03:38.215Z,81.15
2023-04-23T03:06:05.477Z,81.77
2023-04-23T03:08:32.056Z,81.24
2023-04-23T03:10:58.552Z,81.04
2023-04-23T03:13:26.339Z,81.10
2023-04-23T03:15:53.380Z,80.75
2023-04-23T03:18:20.667Z,81.50
2023-04-23T03:20:47.380Z,81.64
2023-04-23T03:23:13.862Z,82.05
2023-04-23T03:25:40.394Z,82.17
2023-04-23T03:28:06.890Z,81.92
2023-04-23T03:30:33.516Z,82.42
2023-04-23T03:33:00.479Z,82.13
2023-04-23T03:35:27.032Z,81.86
2023-04-23T03:37:53.573Z,81.49
2023-04-23T03:40:21.162Z,81.54
2023-04-23T03:42:48.000Z,81.94
2023-04-23T03:45:15.642Z,81.41
2023-04-23T03:47:42.658Z,81.60
2023-04-23T03:50:09.794Z,81.42
2023-04-23T03:52:36.347Z,81.58
2023-04-23T03:55:02.897Z,81.82
2023-04-23T03:57:29.528Z,83.02
2023-04-23T03:59:56.023Z,82.52
2023-04-23T04:02:22.804Z,83.00
2023-04-23T04:04:49.630Z,82.88
2023-04-23T04:07:16.247Z,81.51
2023-04-23T04:09:42.772Z,81.68
2023-04-23T04:12:09.330Z,81.46
2023-04-23T04:14:35.825Z,80.27
2023-04-23T04:17:02.308Z,80.28
2023-04-23T04:19:28.775Z,80.38
2023-04-23T04:21:55.209Z,81.16
2023-04-23T04:24:23.143Z,80.48
2023-04-23T04:26:50.889Z,81.35
2023-04-23T04:29:17.402Z,82.00
2023-04-23T04:31:44.134Z,82.58
2023-04-23T04:34:10.686Z,83.31
2023-04-23T04:36:37.171Z,79.88
2023-04-23T04:39:03.774Z,78.72
2023-04-23T04:41:30.337Z,77.88
2023-04-23T04:43:56.849Z,77.67
2023-04-23T04:46:23.383Z,78.59
2023-04-23T04:48:50.147Z,77.27
2023-04-23T04:51:16.720Z,74.28
2023-04-23T04:53:43.510Z,71.31
2023-04-23T04:56:09.999Z,68.64
2023-04-23T04:58:36.488Z,66.14
2023-04-23T05:01:03.179Z,64.01
2023-04-23T05:03:29.909Z,61.87
2023-04-23T05:05:56.596Z,60.39
2023-04-23T05:08:23.146Z,59.65
2023-04-23T05:10:49.981Z,59.19
2023-04-23T05:13:17.362Z,57.57
2023-04-23T05:15:43.857Z,56.12
2023-04-23T05:18:10.832Z,55.42
2023-04-23T05:20:37.834Z,54.36
2023-04-23T05:23:04.404Z,54.37
2023-04-23T05:25:32.724Z,52.75
2023-04-23T05:27:59.235Z,53.34
2023-04-23T05:30:25.733Z,52.60
2023-04-23T05:32:52.284Z,51.56
2023-04-23T05:35:18.913Z,52.54
2023-04-23T05:37:45.440Z,54.44
2023-04-23T05:40:12.180Z,53.11
2023-04-23T05:42:38.675Z,52.32
2023-04-23T05:45:08.054Z,53.51
2023-04-23T05:47:35.504Z,55.63
2023-04-23T05:50:02.017Z,57.26
2023-04-23T05:52:28.500Z,58.83
2023-04-23T05:54:55.029Z,59.26
2023-04-23T05:57:21.502Z,58.29
2023-04-23T05:59:47.993Z,57.46
2023-04-23T06:02:15.027Z,56.54
2023-04-23T06:04:41.864Z,55.70
2023-04-23T06:07:08.742Z,53.42
2023-04-23T06:09:35.256Z,51.99
2023-04-23T06:12:02.304Z,51.59
2023-04-23T06:14:28.687Z,50.30
2023-04-23T06:16:55.235Z,49.85
2023-04-23T06:19:21.753Z,49.25
2023-04-23T06:21:48.260Z,49.18
2023-04-23T06:24:14.759Z,50.75
2023-04-23T06:26:41.250Z,50.29
2023-04-23T06:29:07.747Z,50.97
2023-04-23T06:31:34.306Z,50.06
2023-04-23T06:34:00.865Z,50.56
2023-04-23T06:36:27.354Z,50.18
2023-04-23T06:38:53.891Z,49.45
2023-04-23T06:41:20.515Z,49.62
2023-04-23T06:43:46.996Z,49.12
2023-04-23T06:46:13.864Z,48.93
2023-04-23T06:48:40.349Z,47.50
2023-04-23T06:51:06.985Z,46.92
2023-04-23T06:53:33.930Z,47.56
2023-04-23T06:56:00.296Z,47.07
2023-04-23T06:58:26.774Z,47.04
2023-04-23T07:00:53.649Z,48.06
2023-04-23T07:03:20.174Z,45.81
2023-04-23T07:05:46.700Z,46.57
2023-04-23T07:08:13.410Z,46.38
2023-04-23T07:10:40.013Z,48.20
2023-04-23T07:13:06.494Z,49.61
2023-04-23T07:15:33.039Z,47.28
2023-04-23T07:17:59.805Z,47.22
2023-04-23T07:20:26.333Z,46.56
2023-04-23T07:22:52.955Z,46.41
2023-04-23T07:25:19.469Z,44.83
2023-04-23T07:27:45.970Z,45.48
2023-04-23T07:30:13.095Z,42.93
2023-04-23T07:32:39.787Z,43.23
2023-04-23T07:35:06.862Z,43.92
2023-04-23T07:37:33.389Z,44.97
2023-04-23T07:39:59.842Z,43.46
2023-04-23T07:42:26.341Z,41.34
2023-04-23T07:44:52.824Z,39.73
2023-04-23T07:47:19.367Z,40.14
2023-04-23T07:49:45.890Z,38.90
2023-04-23T07:52:12.420Z,39.67
2023-04-23T07:54:39.174Z,40.31
2023-04-23T07:57:05.675Z,41.11
2023-04-23T07:59:32.219Z,41.45
2023-04-23T08:01:58.748Z,40.23
2023-04-23T08:04:25.642Z,40.47
2023-04-23T08:06:52.310Z,38.90
2023-04-23T08:09:18.859Z,37.27
2023-04-23T08:11:45.341Z,36.49
2023-04-23T08:14:11.884Z,35.76
2023-04-23T08:16:39.135Z,34.93
2023-04-23T08:19:06.458Z,34.81
2023-04-23T08:21:33.772Z,33.82
2023-04-23T08:24:00.444Z,33.85
2023-04-23T08:26:26.803Z,33.84
2023-04-23T08:28:53.312Z,33.43
2023-04-23T08:31:26.297Z,34.54
2023-04-23T08:33:54.251Z,36.14
2023-04-23T08:36:21.008Z,34.56
2023-04-23T08:38:47.520Z,34.55
2023-04-23T08:41:14.851Z,35.55
2023-04-23T08:43:50.411Z,34.48
2023-04-23T08:46:18.346Z,33.69
2023-04-23T08:48:45.572Z,36.10
2023-04-23T08:51:17.630Z,35.40
2023-04-23T08:53:45.408Z,37.41
2023-04-23T08:56:13.701Z,35.71
2023-04-23T08:58:41.763Z,36.97
2023-04-23T09:01:09.229Z,36.67
2023-04-23T09:03:36.696Z,34.83
2023-04-23T09:06:03.759Z,33.45
2023-04-23T09:08:30.948Z,32.85
2023-04-23T09:11:01.016Z,32.45
2023-04-23T09:13:28.169Z,34.13
2023-04-23T09:15:54.664Z,34.21
2023-04-23T09:18:21.045Z,34.63
2023-04-23T09:20:47.666Z,31.63
2023-04-23T09:23:15.328Z,32.39
2023-04-23T09:25:42.235Z,32.22
2023-04-23T09:28:08.983Z,31.07
2023-04-23T09:30:45.499Z,30.12
2023-04-23T09:33:13.218Z,30.00
2023-04-23T09:35:40.821Z,30.96
2023-04-23T09:38:07.915Z,30.70
2023-04-23T09:40:34.512Z,31.44
2023-04-23T09:43:04.180Z,30.31
2023-04-23T09:45:31.050Z,29.28
2023-04-23T09:47:59.052Z,30.30
2023-04-23T09:50:33.913Z,27.27
2023-04-23T09:53:00.522Z,29.65
2023-04-23T09:55:35.046Z,27.96
2023-04-23T09:58:02.882Z,28.77
2023-04-23T10:00:33.999Z,28.43
2023-04-23T10:03:00.896Z,30.74
2023-04-23T10:05:34.206Z,28.92
2023-04-23T10:08:12.652Z,28.38
2023-04-23T10:10:51.401Z,29.30
2023-04-23T10:13:24.089Z,27.60
2023-04-23T10:15:51.316Z,26.35
2023-04-23T10:18:20.374Z,28.24
2023-04-23T10:20:48.458Z,27.05
2023-04-23T10:23:17.271Z,28.90
2023-04-23T10:25:44.950Z,28.34
2023-04-23T10:28:13.594Z,27.99
2023-04-23T10:30:42.049Z,29.48
2023-04-23T10:33:18.874Z,30.31
2023-04-23T10:35:57.227Z,28.63
2023-04-23T10:38:25.318Z,28.14
2023-04-23T10:40:55.287Z,28.26
2023-04-23T10:43:22.341Z,29.19
2023-04-23T10:45:49.801Z,30.68
2023-04-23T10:48:16.286Z,31.43
2023-04-23T10:50:58.578Z,30.74
2023-04-23T10:53:31.846Z,29.63
2023-04-23T10:56:09.029Z,28.87
2023-04-23T10:58:49.029Z,28.47
2023-04-23T11:01:17.416Z,27.12
2023-04-23T11:03:45.153Z,27.07
2023-04-23T11:06:39.494Z,28.31
2023-04-23T11:09:28.681Z,27.35
2023-04-23T11:11:55.410Z,26.85
2023-04-23T11:14:33.970Z,27.11
2023-04-23T11:17:00.544Z,27.77
2023-04-23T11:19:27.030Z,28.24
2023-04-23T11:21:56.986Z,29.60
2023-04-23T11:24:24.141Z,27.82
2023-04-23T11:26:54.126Z,26.45
2023-04-23T11:29:22.537Z,25.17
2023-04-23T11:32:01.551Z,25.61
2023-04-23T11:34:29.475Z,27.60
2023-04-23T11:36:59.166Z,28.17
2023-04-23T11:39:25.729Z,26.01
2023-04-23T11:41:52.592Z,26.16
2023-04-23T11:44:22.882Z,27.65
2023-04-23T11:46:50.077Z,26.72
2023-04-23T11:49:20.525Z,27.31
2023-04-23T11:51:47.944Z,26.69
2023-04-23T11:54:14.855Z,28.21
2023-04-23T11:56:41.984Z,26.95
2023-04-23T11:59:08.902Z,28.29
2023-04-23T12:01:49.051Z,28.24
2023-04-23T12:04:22.402Z,28.68
2023-04-23T12:06:51.026Z,29.43
2023-04-23T12:09:20.207Z,29.23
2023-04-23T12:11:47.513Z,27.96
2023-04-23T12:14:15.195Z,26.58
2023-04-23T12:16:44.030Z,27.87
2023-04-23T12:19:16.009Z,27.91
2023-04-23T12:21:48.499Z,27.92
2023-04-23T12:24:15.562Z,27.67
2023-04-23T12:26:42.722Z,27.82
2023-04-23T12:29:09.281Z,26.82
2023-04-23T12:31:37.188Z,25.98
2023-04-23T12:34:04.530Z,25.85
2023-04-23T12:36:31.967Z,26.77
2023-04-23T12:39:23.207Z,27.40
2023-04-23T12:41:54.967Z,27.87
2023-04-23T12:44:21.957Z,28.16
2023-04-23T12:46:57.847Z,28.73
2023-04-23T12:49:25.891Z,27.92
2023-04-23T12:51:53.307Z,28.23
2023-04-23T12:54:20.213Z,28.55
2023-04-23T12:56:46.706Z,28.97
2023-04-23T12:59:13.067Z,29.37
2023-04-23T13:01:39.707Z,29.61
2023-04-23T13:04:06.449Z,30.07
2023-04-23T13:06:33.227Z,30.85
2023-04-23T13:08:59.773Z,31.43
2023-04-23T13:11:26.128Z,30.44
2023-04-23T13:13:52.736Z,29.60
2023-04-23T13:16:19.220Z,28.96
2023-04-23T13:18:45.793Z,29.69
2023-04-23T13:21:12.171Z,29.63
2023-04-23T13:23:38.695Z,30.28
2023-04-23T13:26:05.127Z,30.48
2023-04-23T13:28:31.652Z,29.67
2023-04-23T13:30:58.119Z,29.45
2023-04-23T13:33:24.608Z,29.24
2023-04-23T13:35:51.086Z,28.82
2023-04-23T13:38:17.633Z,29.23
2023-04-23T13:40:44.023Z,29.72
2023-04-23T13:43:10.545Z,30.16
2023-04-23T13:45:37.013Z,30.46
2023-04-23T13:48:03.626Z,30.01
2023-04-23T13:50:29.999Z,28.75
2023-04-23T13:52:56.499Z,28.94
2023-04-23T13:55:22.922Z,28.97
2023-04-23T13:57:49.496Z,29.51
2023-04-23T14:00:16.115Z,30.11
2023-04-23T14:02:42.796Z,30.04
2023-04-23T14:05:09.764Z,29.81
2023-04-23T14:07:36.304Z,29.61
2023-04-23T14:10:02.690Z,30.03
2023-04-23T14:12:29.255Z,29.65
2023-04-23T14:14:55.775Z,30.15
2023-04-23T14:17:22.266Z,29.34
2023-04-23T14:19:48.758Z,29.75
2023-04-23T14:22:15.242Z,29.96
2023-04-23T14:24:49.542Z,29.50
2023-04-23T14:27:16.096Z,30.01
2023-04-23T14:29:46.537Z,30.10
2023-04-23T14:32:13.027Z,29.49
2023-04-23T14:34:39.574Z,29.28
2023-04-23T14:37:05.959Z,29.47
2023-04-23T14:39:33.851Z,29.51
2023-04-23T14:42:00.363Z,29.42
2023-04-23T14:44:26.891Z,29.65
2023-04-23T14:46:53.435Z,29.89
2023-04-23T14:49:20.247Z,29.48
2023-04-23T14:51:48.281Z,29.60
2023-04-23T14:54:14.813Z,29.73
2023-04-23T14:56:41.329Z,29.47
2023-04-23T14:59:07.842Z,29.32
2023-04-23T15:01:34.465Z,29.46
2023-04-23T15:04:01.326Z,29.58
2023-04-23T15:06:27.955Z,29.20
2023-04-23T15:08:54.476Z,29.43
2023-04-23T15:11:20.911Z,29.39
2023-04-23T15:14:01.009Z,29.14
2023-04-23T15:16:47.273Z,29.03
2023-04-23T15:19:15.250Z,29.10
2023-04-23T15:21:41.630Z,29.38
2023-04-23T15:24:08.150Z,28.89
2023-04-23T15:26:34.908Z,29.03
2023-04-23T15:29:01.491Z,29.33
2023-04-23T15:31:28.046Z,29.07
2023-04-23T15:33:54.592Z,29.07
2023-04-23T15:36:21.105Z,29.39
2023-04-23T15:38:47.595Z,29.31
2023-04-23T15:41:14.164Z,29.78
2023-04-23T15:43:40.728Z,29.77
2023-04-23T15:46:07.290Z,29.67
2023-04-23T15:48:33.800Z,29.70
2023-04-23T15:51:00.333Z,29.53
2023-04-23T15:53:27.824Z,29.54
2023-04-23T15:55:54.355Z,29.58
2023-04-23T15:58:21.232Z,29.49
2023-04-23T16:00:47.804Z,29.58
2023-04-23T16:03:14.927Z,30.35
2023-04-23T16:05:42.018Z,29.88
2023-04-23T16:08:08.987Z,30.39
2023-04-23T16:10:37.047Z,30.50
2023-04-23T16:13:10.182Z,30.44
2023-04-23T16:15:36.580Z,30.53
2023-04-23T16:18:03.269Z,30.62
2023-04-23T16:20:29.729Z,30.81
2023-04-23T16:22:56.246Z,30.86
2023-04-23T16:25:22.942Z,30.91
2023-04-23T16:27:49.480Z,31.04
2023-04-23T16:30:16.104Z,31.65
2023-04-23T16:32:43.732Z,31.94
2023-04-23T16:35:10.560Z,32.07
2023-04-23T16:37:37.031Z,32.52
2023-04-23T16:40:03.847Z,32.45
2023-04-23T16:42:30.352Z,31.88
2023-04-23T16:44:56.836Z,32.43
2023-04-23T16:47:23.454Z,32.50
2023-04-23T16:49:50.025Z,33.35
2023-04-23T16:52:16.558Z,33.60
2023-04-23T16:54:43.373Z,33.72
2023-04-23T16:57:10.294Z,33.95
2023-04-23T16:59:36.844Z,33.92
2023-04-23T17:02:03.482Z,34.90
2023-04-23T17:04:30.002Z,34.74
2023-04-23T17:06:56.564Z,34.60
2023-04-23T17:09:23.052Z,35.18
2023-04-23T17:11:49.550Z,35.86
2023-04-23T17:14:16.026Z,35.81
2023-04-23T17:16:42.538Z,36.08
2023-04-23T17:19:09.086Z,36.35
2023-04-23T17:21:35.619Z,36.97
2023-04-23T17:24:02.165Z,37.68
2023-04-23T17:26:28.816Z,37.64
2023-04-23T17:28:55.266Z,38.20
2023-04-23T17:31:21.889Z,38.99
2023-04-23T17:33:48.412Z,39.30
2023-04-23T17:36:15.066Z,39.57
2023-04-23T17:38:41.650Z,40.18
2023-04-23T17:41:08.264Z,40.14
2023-04-23T17:43:34.926Z,40.08
2023-04-23T17:46:01.674Z,40.88
2023-04-23T17:48:28.389Z,40.75
2023-04-23T17:50:54.933Z,40.68
2023-04-23T17:53:21.470Z,41.07
2023-04-23T17:55:48.001Z,40.91
2023-04-23T17:58:14.503Z,40.91
2023-04-23T18:00:42.127Z,40.58
2023-04-23T18:03:09.441Z,41.69
2023-04-23T18:05:36.348Z,40.75
2023-04-23T18:08:03.106Z,41.99
2023-04-23T18:10:29.832Z,42.38
2023-04-23T18:12:56.476Z,40.83
2023-04-23T18:15:23.698Z,41.56
2023-04-23T18:17:50.334Z,41.65
2023-04-23T18:20:16.990Z,41.54
2023-04-23T18:22:43.548Z,42.33
2023-04-23T18:25:10.177Z,42.20
2023-04-23T18:27:36.694Z,42.15
2023-04-23T18:30:03.578Z,42.35
2023-04-23T18:32:35.158Z,43.01
2023-04-23T18:35:02.841Z,42.28
2023-04-23T18:37:47.557Z,42.94
2023-04-23T18:40:14.249Z,43.23
2023-04-23T18:42:40.754Z,42.83
2023-04-23T18:45:07.735Z,42.67
2023-04-23T18:47:51.029Z,44.31
2023-04-23T18:50:31.070Z,43.83
2023-04-23T18:52:57.623Z,43.82
2023-04-23T18:55:24.095Z,43.91
2023-04-23T18:57:50.614Z,43.49
2023-04-23T19:00:17.232Z,43.97
2023-04-23T19:02:43.888Z,43.27
2023-04-23T19:05:11.259Z,43.44
2023-04-23T19:07:37.894Z,44.53
2023-04-23T19:10:04.652Z,43.86
2023-04-23T19:12:31.171Z,43.82
2023-04-23T19:14:57.631Z,44.03
2023-04-23T19:17:24.270Z,44.40
2023-04-23T19:19:50.869Z,44.23
2023-04-23T19:22:17.426Z,44.43
2023-04-23T19:24:43.893Z,44.99
2023-04-23T19:27:10.442Z,45.05
2023-04-23T19:29:36.918Z,44.61
2023-04-23T19:32:03.419Z,44.69
2023-04-23T19:34:29.959Z,43.42
2023-04-23T19:36:56.446Z,44.50
2023-04-23T19:39:22.901Z,44.07
2023-04-23T19:41:49.607Z,43.59
2023-04-23T19:44:16.158Z,43.99
2023-04-23T19:46:42.665Z,44.17
2023-04-23T19:49:09.193Z,44.38
2023-04-23T19:51:36.564Z,44.94
2023-04-23T19:54:03.104Z,45.30
2023-04-23T19:56:29.664Z,45.86
2023-04-23T19:58:56.266Z,46.81
2023-04-23T20:01:22.841Z,47.39
2023-04-23T20:03:49.463Z,48.00
2023-04-23T20:06:16.462Z,49.84
2023-04-23T20:08:42.966Z,50.15
2023-04-23T20:11:09.916Z,51.12
2023-04-23T20:13:36.472Z,52.29
2023-04-23T20:16:03.084Z,52.73
2023-04-23T20:18:29.636Z,53.04
2023-04-23T20:20:56.133Z,52.20
2023-04-23T20:23:22.646Z,53.76
2023-04-23T20:25:49.304Z,54.07
2023-04-23T20:28:15.837Z,54.38
2023-04-23T20:30:42.427Z,54.53
2023-04-23T20:33:09.318Z,54.12
2023-04-23T20:35:35.884Z,55.00
2023-04-23T20:38:02.457Z,55.02
2023-04-23T20:40:29.948Z,55.11
2023-04-23T20:42:56.427Z,56.01
2023-04-23T20:45:22.910Z,55.50
2023-04-23T20:47:49.442Z,56.08
2023-04-23T20:50:16.146Z,56.56
2023-04-23T20:52:42.852Z,56.68
2023-04-23T20:55:09.696Z,57.05
2023-04-23T20:57:36.357Z,56.53
2023-04-23T21:00:03.752Z,57.15
2023-04-23T21:02:30.364Z,56.83
2023-04-23T21:04:56.956Z,56.74
2023-04-23T21:07:23.447Z,57.18
2023-04-23T21:09:49.983Z,57.15
2023-04-23T21:12:16.519Z,57.51
2023-04-23T21:14:43.212Z,57.89
2023-04-23T21:17:09.702Z,58.26
2023-04-23T21:19:36.192Z,58.22
2023-04-23T21:22:02.643Z,58.84
2023-04-23T21:24:29.140Z,59.15
2023-04-23T21:26:55.679Z,59.00
2023-04-23T21:29:22.178Z,59.21
2023-04-23T21:31:51.876Z,59.44
2023-04-23T21:34:18.527Z,59.49
2023-04-23T21:36:45.640Z,60.08
2023-04-23T21:39:13.230Z,60.59
2023-04-23T21:41:40.074Z,60.47
2023-04-23T21:44:06.706Z,60.77
2023-04-23T21:46:33.437Z,60.76
2023-04-23T21:49:00.044Z,60.48
2023-04-23T21:51:26.588Z,60.63
2023-04-23T21:53:53.147Z,60.11
2023-04-23T21:56:20.098Z,60.65
2023-04-23T21:58:46.588Z,60.54
2023-04-23T22:01:13.186Z,60.96
2023-04-23T22:03:40.104Z,60.84
2023-04-23T22:06:06.986Z,60.41
2023-04-23T22:08:33.838Z,60.16
2023-04-23T22:11:00.339Z,60.20
2023-04-23T22:13:26.870Z,60.43
2023-04-23T22:15:53.417Z,60.82
2023-04-23T22:18:19.908Z,60.95
2023-04-23T22:20:46.462Z,61.42
2023-04-23T22:23:12.997Z,61.05
2023-04-23T22:25:39.487Z,61.39
2023-04-23T22:28:06.497Z,61.88
2023-04-23T22:30:33.170Z,62.44
2023-04-23T22:32:59.754Z,62.23
2023-04-23T22:35:26.432Z,62.53
2023-04-23T22:37:53.409Z,62.98
2023-04-23T22:40:19.985Z,63.14
2023-04-23T22:42:46.532Z,63.30
2023-04-23T22:45:13.080Z,63.29
2023-04-23T22:47:39.673Z,63.06
2023-04-23T22:50:06.685Z,62.64
2023-04-23T22:52:33.193Z,62.07
2023-04-23T22:54:59.648Z,62.42
2023-04-23T22:57:26.363Z,62.60
2023-04-23T22:59:52.881Z,63.07
2023-04-23T23:02:19.562Z,62.99
2023-04-23T23:04:46.182Z,62.79
2023-04-23T23:07:12.723Z,62.22
2023-04-23T23:09:39.217Z,62.01
2023-04-23T23:12:05.751Z,61.71
2023-04-23T23:14:32.445Z,61.56
2023-04-23T23:16:59.223Z,62.64
2023-04-23T23:19:25.872Z,62.79
2023-04-23T23:21:52.469Z,63.45
2023-04-23T23:24:19.138Z,63.15
2023-04-23T23:26:45.709Z,62.84
2023-04-23T23:29:12.283Z,62.98
2023-04-23T23:31:38.866Z,63.60
2023-04-23T23:34:05.631Z,65.12
2023-04-23T23:36:32.499Z,66.76
2023-04-23T23:38:59.105Z,68.12
2023-04-23T23:41:25.659Z,71.57
2023-04-23T23:43:52.899Z,72.59
2023-04-23T23:46:19.855Z,73.62
2023-04-23T23:48:46.937Z,73.97
2023-04-23T23:51:14.272Z,73.93
2023-04-23T23:53:40.749Z,72.30
2023-04-23T23:56:07.273Z,71.88
2023-04-23T23:58:33.754Z,71.77
